Time;durP1;ratioP1;P1;durP2;ratioP2;P2;SDS_P1;SDS_P2;PMS_P1;PMS_P2;Temp;Humidity;BMP_temperature;BMP_pressure;BME280_temperature;BME280_humidity;BME280_pressure;Samples;Min_cycle;Max_cycle;Signal;HPM_P1;HPM_P2
2023/10/04 00:01:04;;;;;;;;;;;17.00;55.90;;;;;;5041483;27;93195;-51
2023/10/04 00:03:30;;;;;;;;;;;16.90;55.20;;;;;;5044641;27;92591;-50
2023/10/04 00:05:55;;;;;;;;;;;16.90;55.20;;;;;;5041417;28;93282;-52
2023/10/04 00:08:23;;;;;;;;;;;16.90;55.20;;;;;;5041430;28;92339;-50
2023/10/04 00:10:49;;;;;;;;;;;16.90;55.30;;;;;;5041676;27;94060;-48
2023/10/04 00:13:15;;;;;;;;;;;16.90;55.20;;;;;;5037925;28;92474;-52
2023/10/04 00:15:41;;;;;;;;;;;16.90;55.30;;;;;;5041921;27;92206;-51
2023/10/04 00:18:06;;;;;;;;;;;16.90;55.30;;;;;;5041370;28;92833;-53
2023/10/04 00:20:33;;;;;;;;;;;16.90;55.20;;;;;;5040620;27;94456;-51
2023/10/04 00:23:00;;;;;;;;;;;16.90;55.20;;;;;;5041575;27;92580;-52
2023/10/04 00:25:25;;;;;;;;;;;16.90;55.30;;;;;;5043819;27;92509;-52
2023/10/04 00:27:52;;;;;;;;;;;16.80;55.20;;;;;;5041647;27;92709;-51
2023/10/04 00:30:18;;;;;;;;;;;16.80;55.20;;;;;;5041238;27;93840;-50
2023/10/04 00:32:47;;;;;;;;;;;16.80;55.20;;;;;;5041171;27;93042;-52
2023/10/04 00:35:15;;;;;;;;;;;16.80;55.20;;;;;;5041163;27;92063;-51
2023/10/04 00:37:47;;;;;;;;;;;16.80;55.20;;;;;;5041939;27;94341;-49
2023/10/04 00:40:15;;;;;;;;;;;16.80;55.30;;;;;;5037073;28;94808;-51
2023/10/04 00:42:41;;;;;;;;;;;16.70;55.20;;;;;;5041199;27;92117;-51
2023/10/04 00:45:09;;;;;;;;;;;16.80;55.20;;;;;;5043381;28;92979;-51
2023/10/04 00:47:35;;;;;;;;;;;16.70;55.20;;;;;;5041303;27;92138;-48
2023/10/04 00:50:14;;;;;;;;;;;16.70;55.30;;;;;;5039625;27;93210;-51
2023/10/04 00:52:41;;;;;;;;;;;16.70;55.30;;;;;;5038062;28;93445;-51
2023/10/04 00:55:07;;;;;;;;;;;16.70;55.20;;;;;;5040359;28;92830;-50
2023/10/04 00:57:34;;;;;;;;;;;16.70;55.30;;;;;;5040946;28;93958;-50
2023/10/04 01:00:03;;;;;;;;;;;16.70;55.30;;;;;;5040355;28;93377;-53
2023/10/04 01:02:33;;;;;;;;;;;16.70;55.30;;;;;;5040958;27;91576;-49
2023/10/04 01:04:59;;;;;;;;;;;16.60;55.20;;;;;;5040376;27;93463;-53
2023/10/04 01:07:25;;;;;;;;;;;16.60;55.20;;;;;;5043546;28;93335;-52
2023/10/04 01:09:50;;;;;;;;;;;16.70;55.20;;;;;;5039741;28;93050;-50
2023/10/04 01:12:21;;;;;;;;;;;16.60;55.20;;;;;;5040520;28;93310;-54
2023/10/04 01:14:49;;;;;;;;;;;16.70;55.20;;;;;;5041111;27;92034;-52
2023/10/04 01:17:14;;;;;;;;;;;16.60;55.20;;;;;;5040848;27;92932;-48
2023/10/04 01:19:40;;;;;;;;;;;16.60;55.20;;;;;;5039738;28;93440;-52
2023/10/04 01:22:06;;;;;;;;;;;16.60;55.30;;;;;;5040566;27;92158;-51
2023/10/04 01:24:33;;;;;;;;;;;16.60;55.30;;;;;;5039982;27;92045;-50
2023/10/04 01:27:00;;;;;;;;;;;16.60;55.20;;;;;;5036925;28;91635;-51
2023/10/04 01:29:25;;;;;;;;;;;16.60;55.20;;;;;;5043617;27;92170;-53
2023/10/04 01:31:52;;;;;;;;;;;16.50;55.20;;;;;;5040157;28;93253;-50
2023/10/04 01:34:18;;;;;;;;;;;16.50;55.20;;;;;;5038540;27;93499;-51
2023/10/04 01:36:43;;;;;;;;;;;16.40;55.20;;;;;;5040743;28;94357;-51
2023/10/04 01:39:15;;;;;;;;;;;16.50;55.20;;;;;;5039543;28;93622;-53
2023/10/04 01:41:41;;;;;;;;;;;16.50;55.20;;;;;;5037156;28;92872;-49
2023/10/04 01:44:09;;;;;;;;;;;16.50;55.20;;;;;;5040455;28;92887;-53
2023/10/04 01:46:38;;;;;;;;;;;16.50;55.20;;;;;;5039792;27;93112;-52
2023/10/04 01:49:09;;;;;;;;;;;16.50;55.20;;;;;;5040187;28;92746;-51
2023/10/04 01:51:35;;;;;;;;;;;16.50;55.20;;;;;;5042713;28;92128;-52
2023/10/04 01:54:00;;;;;;;;;;;16.50;55.10;;;;;;5039801;28;92192;-53
2023/10/04 01:56:26;;;;;;;;;;;16.40;55.00;;;;;;5039969;28;93040;-52
2023/10/04 01:58:53;;;;;;;;;;;16.40;55.10;;;;;;5038995;28;94195;-53
2023/10/04 02:01:19;;;;;;;;;;;16.40;55.10;;;;;;5039688;27;92602;-50
2023/10/04 02:03:44;;;;;;;;;;;16.40;55.10;;;;;;5039927;28;92794;-49
2023/10/04 02:06:10;;;;;;;;;;;16.40;55.10;;;;;;5038964;28;93392;-53
2023/10/04 02:08:36;;;;;;;;;;;16.40;55.10;;;;;;5039835;27;92122;-52
2023/10/04 02:11:03;;;;;;;;;;;16.40;55.10;;;;;;5039599;28;92580;-50
2023/10/04 02:13:29;;;;;;;;;;;16.30;55.10;;;;;;5042545;27;93004;-54
2023/10/04 02:15:54;;;;;;;;;;;16.40;55.10;;;;;;5040489;28;92682;-51
2023/10/04 02:18:21;;;;;;;;;;;16.30;55.10;;;;;;5039511;27;93171;-50
2023/10/04 02:20:48;;;;;;;;;;;16.30;55.00;;;;;;5039331;27;92197;-52
2023/10/04 02:23:17;;;;;;;;;;;16.30;55.00;;;;;;5038904;27;93751;-51
2023/10/04 02:25:42;;;;;;;;;;;16.30;55.00;;;;;;5039367;27;93175;-50
2023/10/04 02:28:11;;;;;;;;;;;16.30;55.00;;;;;;5039782;28;92158;-52
2023/10/04 02:30:40;;;;;;;;;;;16.30;55.00;;;;;;5039508;28;92244;-51
2023/10/04 02:33:14;;;;;;;;;;;16.30;55.00;;;;;;5039179;28;92916;-50
2023/10/04 02:35:44;;;;;;;;;;;16.30;55.00;;;;;;5042158;27;92074;-47
2023/10/04 02:38:19;;;;;;;;;;;16.30;55.00;;;;;;5038944;27;93397;-51
2023/10/04 02:40:45;;;;;;;;;;;16.20;55.00;;;;;;5036234;28;91657;-49
2023/10/04 02:43:11;;;;;;;;;;;16.20;55.00;;;;;;5039513;27;92402;-49
2023/10/04 02:45:37;;;;;;;;;;;16.20;55.00;;;;;;5039010;28;93175;-49
2023/10/04 02:48:04;;;;;;;;;;;16.20;55.00;;;;;;5038709;27;92960;-50
2023/10/04 02:50:29;;;;;;;;;;;16.20;55.00;;;;;;5038449;27;94822;-49
2023/10/04 02:52:56;;;;;;;;;;;16.10;55.00;;;;;;5038424;28;93330;-52
2023/10/04 02:55:21;;;;;;;;;;;16.10;55.00;;;;;;5041897;27;92021;-48
2023/10/04 02:57:51;;;;;;;;;;;16.10;55.00;;;;;;5038502;27;94260;-51
2023/10/04 03:00:17;;;;;;;;;;;16.20;55.00;;;;;;5039173;27;92216;-50
2023/10/04 03:02:44;;;;;;;;;;;16.10;55.00;;;;;;5038510;27;93860;-52
2023/10/04 03:05:11;;;;;;;;;;;16.10;54.90;;;;;;5039088;27;92808;-50
2023/10/04 03:07:37;;;;;;;;;;;16.10;55.00;;;;;;5037764;28;92808;-52
2023/10/04 03:10:03;;;;;;;;;;;16.10;55.00;;;;;;5038637;28;92464;-51
2023/10/04 03:12:28;;;;;;;;;;;16.10;55.00;;;;;;5036682;27;95297;-51
2023/10/04 03:14:56;;;;;;;;;;;16.10;55.00;;;;;;5039165;28;92134;-53
2023/10/04 03:17:21;;;;;;;;;;;16.10;55.00;;;;;;5041537;28;93059;-49
2023/10/04 03:19:47;;;;;;;;;;;16.00;54.90;;;;;;5038900;28;92176;-49
2023/10/04 03:22:19;;;;;;;;;;;16.00;54.90;;;;;;5038236;27;95605;-53
2023/10/04 03:24:45;;;;;;;;;;;16.00;55.00;;;;;;5038060;28;94655;-53
2023/10/04 03:27:11;;;;;;;;;;;16.00;55.00;;;;;;5038059;27;93842;-51
2023/10/04 03:29:39;;;;;;;;;;;16.00;55.00;;;;;;5039347;27;92601;-49
2023/10/04 03:32:05;;;;;;;;;;;15.90;55.00;;;;;;5038146;28;93169;-51
2023/10/04 03:34:31;;;;;;;;;;;15.90;55.00;;;;;;5038531;28;92220;-52
2023/10/04 03:37:08;;;;;;;;;;;15.90;54.50;;;;;;5037886;27;93474;-48
2023/10/04 03:39:34;;;;;;;;;;;15.90;55.00;;;;;;5041100;27;94682;-50
2023/10/04 03:42:00;;;;;;;;;;;15.90;54.90;;;;;;5038225;27;92964;-52
2023/10/04 03:44:25;;;;;;;;;;;15.90;55.00;;;;;;5038269;28;93514;-47
2023/10/04 03:46:53;;;;;;;;;;;15.90;54.90;;;;;;5038337;27;92211;-50
2023/10/04 03:49:21;;;;;;;;;;;15.90;54.90;;;;;;5038537;27;92869;-48
2023/10/04 03:51:46;;;;;;;;;;;15.90;54.90;;;;;;5037553;27;94486;-48
2023/10/04 03:54:12;;;;;;;;;;;15.80;54.90;;;;;;5039128;28;92087;-50
2023/10/04 03:56:41;;;;;;;;;;;15.90;54.90;;;;;;5038015;27;92166;-53
2023/10/04 03:59:08;;;;;;;;;;;15.80;54.90;;;;;;5033723;28;94809;-49
2023/10/04 04:01:33;;;;;;;;;;;15.80;55.00;;;;;;5040348;27;93079;-54
2023/10/04 04:04:03;;;;;;;;;;;15.80;54.90;;;;;;5037972;27;93204;-54
2023/10/04 04:06:29;;;;;;;;;;;15.90;54.90;;;;;;5038020;27;92131;-54
2023/10/04 04:08:56;;;;;;;;;;;15.80;54.90;;;;;;5038409;28;92626;-50
2023/10/04 04:11:22;;;;;;;;;;;15.80;54.90;;;;;;5037091;27;94493;-47
2023/10/04 04:13:48;;;;;;;;;;;15.80;54.90;;;;;;5037913;27;92681;-51
2023/10/04 04:16:17;;;;;;;;;;;15.80;55.00;;;;;;5038506;27;92986;-50
2023/10/04 04:18:42;;;;;;;;;;;15.80;54.90;;;;;;5038108;27;92451;-51
2023/10/04 04:21:08;;;;;;;;;;;15.70;54.90;;;;;;5038070;27;92158;-51
2023/10/04 04:23:34;;;;;;;;;;;15.70;54.90;;;;;;5041239;27;93773;-48
2023/10/04 04:26:05;;;;;;;;;;;15.70;54.80;;;;;;5039682;27;94902;-51
2023/10/04 04:28:34;;;;;;;;;;;15.70;54.80;;;;;;5039575;27;93831;-51
2023/10/04 04:31:00;;;;;;;;;;;15.70;54.90;;;;;;5040350;27;93202;-53
2023/10/04 04:33:28;;;;;;;;;;;15.70;54.90;;;;;;5041677;27;92232;-50
2023/10/04 04:36:00;;;;;;;;;;;15.70;54.80;;;;;;5038928;27;93633;-51
2023/10/04 04:38:28;;;;;;;;;;;15.70;55.50;;;;;;5037803;27;93320;-51
2023/10/04 04:41:04;;;;;;;;;;;15.70;54.80;;;;;;5040634;27;92671;-53
2023/10/04 04:45:58;;;;;;;;;;;15.60;54.80;;;;;;5039381;27;92265;-50
2023/10/04 04:48:24;;;;;;;;;;;15.60;54.70;;;;;;5039274;27;92617;-52
2023/10/04 04:50:54;;;;;;;;;;;15.60;54.80;;;;;;5039832;27;94225;-50
2023/10/04 04:53:22;;;;;;;;;;;15.60;54.80;;;;;;5039767;27;92225;-52
2023/10/04 04:55:48;;;;;;;;;;;15.60;54.80;;;;;;5039373;27;93268;-51
2023/10/04 04:58:14;;;;;;;;;;;15.60;54.80;;;;;;5036731;27;94408;-50
2023/10/04 05:00:43;;;;;;;;;;;15.50;54.70;;;;;;5040805;28;92219;-49
2023/10/04 05:03:11;;;;;;;;;;;15.60;54.80;;;;;;5042730;27;93666;-52
2023/10/04 05:05:38;;;;;;;;;;;15.60;54.80;;;;;;5041756;27;93198;-52
2023/10/04 05:08:04;;;;;;;;;;;15.50;54.70;;;;;;5037509;28;93026;-51
2023/10/04 05:10:36;;;;;;;;;;;15.60;54.80;;;;;;5040406;27;93332;-51
2023/10/04 05:13:02;;;;;;;;;;;15.50;54.80;;;;;;5039348;27;92608;-51
2023/10/04 05:15:32;;;;;;;;;;;15.50;54.80;;;;;;5036587;27;93078;-51
2023/10/04 05:18:00;;;;;;;;;;;15.50;54.80;;;;;;5040168;28;93407;-52
2023/10/04 05:20:26;;;;;;;;;;;15.50;54.70;;;;;;5038783;28;92197;-54
2023/10/04 05:22:53;;;;;;;;;;;15.50;54.80;;;;;;5040967;27;93888;-52
2023/10/04 05:25:20;;;;;;;;;;;15.50;55.40;;;;;;5038242;27;94269;-49
2023/10/04 05:27:48;;;;;;;;;;;15.40;54.20;;;;;;5043082;27;92275;-51
2023/10/04 05:30:16;;;;;;;;;;;15.50;54.70;;;;;;5035315;27;93387;-50
2023/10/04 05:32:45;;;;;;;;;;;15.40;54.70;;;;;;5038324;27;91562;-49
2023/10/04 05:35:12;;;;;;;;;;;15.50;54.70;;;;;;5035752;27;92140;-51
2023/10/04 05:37:41;;;;;;;;;;;15.40;54.70;;;;;;5039754;27;93204;-52
2023/10/04 05:40:15;;;;;;;;;;;15.40;54.70;;;;;;5037480;27;93252;-51
2023/10/04 05:42:41;;;;;;;;;;;15.40;54.60;;;;;;5037793;27;93847;-52
2023/10/04 05:45:08;;;;;;;;;;;15.50;54.70;;;;;;5039847;27;93741;-49
2023/10/04 05:47:33;;;;;;;;;;;15.40;54.70;;;;;;5039787;27;92181;-51
2023/10/04 05:49:59;;;;;;;;;;;15.40;54.70;;;;;;5040452;27;92648;-50
2023/10/04 05:52:24;;;;;;;;;;;15.40;54.70;;;;;;5034338;27;93030;-51
2023/10/04 05:54:50;;;;;;;;;;;15.40;54.70;;;;;;5039374;28;93614;-50
2023/10/04 05:57:16;;;;;;;;;;;15.40;54.70;;;;;;5039352;28;92818;-53
2023/10/04 05:59:42;;;;;;;;;;;15.40;54.70;;;;;;5037267;27;93188;-51
2023/10/04 06:02:08;;;;;;;;;;;15.40;54.70;;;;;;5033777;27;92579;-51
2023/10/04 06:04:33;;;;;;;;;;;15.40;54.70;;;;;;5038409;28;94366;-51
2023/10/04 06:06:59;;;;;;;;;;;15.40;54.70;;;;;;5039189;28;92129;-54
2023/10/04 06:09:28;;;;;;;;;;;15.40;54.70;;;;;;5037682;27;92842;-51
2023/10/04 06:11:54;;;;;;;;;;;15.40;54.70;;;;;;5037774;28;92396;-54
2023/10/04 06:14:19;;;;;;;;;;;15.40;54.70;;;;;;5039657;27;94138;-51
2023/10/04 06:16:45;;;;;;;;;;;15.40;54.70;;;;;;5037657;27;93770;-49
2023/10/04 06:19:10;;;;;;;;;;;15.40;54.80;;;;;;5038151;27;93957;-50
2023/10/04 06:21:36;;;;;;;;;;;15.40;54.80;;;;;;5036832;27;94601;-53
2023/10/04 06:24:01;;;;;;;;;;;15.40;55.40;;;;;;5039382;28;93359;-51
2023/10/04 06:26:27;;;;;;;;;;;15.40;54.80;;;;;;5037620;27;92272;-50
2023/10/04 06:28:53;;;;;;;;;;;15.40;54.80;;;;;;5036423;27;93620;-51
2023/10/04 06:31:18;;;;;;;;;;;15.40;54.90;;;;;;5038884;27;94735;-48
2023/10/04 06:33:45;;;;;;;;;;;15.40;54.80;;;;;;5042246;28;92186;-47
2023/10/04 06:36:10;;;;;;;;;;;15.30;54.80;;;;;;5036552;27;96188;-50
2023/10/04 06:38:36;;;;;;;;;;;15.40;55.00;;;;;;5034998;27;92760;-52
2023/10/04 06:41:03;;;;;;;;;;;15.40;55.00;;;;;;5039301;27;93887;-55
2023/10/04 06:43:29;;;;;;;;;;;15.40;55.00;;;;;;5039813;27;94378;-51
2023/10/04 06:45:55;;;;;;;;;;;15.30;54.90;;;;;;5039995;27;91718;-51
2023/10/04 06:48:20;;;;;;;;;;;15.30;55.00;;;;;;5036975;27;92368;-51
2023/10/04 06:50:49;;;;;;;;;;;15.30;55.10;;;;;;5038194;27;93120;-51
2023/10/04 06:53:15;;;;;;;;;;;15.30;55.10;;;;;;5039950;27;93596;-50
2023/10/04 06:55:41;;;;;;;;;;;15.30;55.20;;;;;;5035813;27;93131;-49
2023/10/04 06:58:10;;;;;;;;;;;15.30;55.30;;;;;;5035251;28;92502;-53
2023/10/04 07:00:36;;;;;;;;;;;15.30;55.30;;;;;;5034891;28;94047;-50
2023/10/04 07:03:02;;;;;;;;;;;15.30;55.30;;;;;;5035204;27;94447;-50
2023/10/04 07:05:37;;;;;;;;;;;15.30;55.30;;;;;;5035140;27;92208;-52
2023/10/04 07:08:08;;;;;;;;;;;15.30;55.20;;;;;;5034176;28;96039;-53
2023/10/04 07:10:34;;;;;;;;;;;15.30;55.20;;;;;;5038251;27;92579;-51
2023/10/04 07:13:01;;;;;;;;;;;15.30;55.20;;;;;;5039442;27;92252;-54
2023/10/04 07:15:28;;;;;;;;;;;15.30;55.20;;;;;;5037406;27;93863;-51
2023/10/04 07:17:53;;;;;;;;;;;15.30;55.20;;;;;;5038321;27;93034;-51
2023/10/04 07:20:19;;;;;;;;;;;15.30;55.30;;;;;;5037901;27;93825;-50
2023/10/04 07:22:45;;;;;;;;;;;15.30;55.40;;;;;;5036179;27;94865;-51
2023/10/04 07:25:12;;;;;;;;;;;15.30;55.40;;;;;;5040392;27;92205;-52
2023/10/04 07:27:39;;;;;;;;;;;15.30;55.50;;;;;;5038060;27;93948;-50
2023/10/04 07:30:07;;;;;;;;;;;15.30;55.40;;;;;;5036304;27;94695;-49
2023/10/04 07:32:32;;;;;;;;;;;15.30;55.40;;;;;;5036857;27;93173;-51
2023/10/04 07:34:58;;;;;;;;;;;15.30;55.40;;;;;;5037508;27;92607;-50
2023/10/04 07:37:23;;;;;;;;;;;15.30;55.40;;;;;;5040784;27;93390;-51
2023/10/04 07:39:49;;;;;;;;;;;15.30;55.50;;;;;;5036976;27;92643;-50
2023/10/04 07:42:15;;;;;;;;;;;15.30;55.60;;;;;;5034064;27;95742;-53
2023/10/04 07:44:40;;;;;;;;;;;15.30;55.60;;;;;;5037474;27;92247;-52
2023/10/04 07:47:06;;;;;;;;;;;15.20;55.70;;;;;;5038114;28;93095;-50
2023/10/04 07:49:31;;;;;;;;;;;15.30;55.70;;;;;;5035764;27;93880;-51
2023/10/04 07:51:57;;;;;;;;;;;15.30;55.70;;;;;;5034529;27;92593;-48
2023/10/04 07:54:23;;;;;;;;;;;15.20;55.70;;;;;;5038017;28;93623;-51
2023/10/04 07:56:49;;;;;;;;;;;15.30;55.80;;;;;;5037570;28;93265;-52
2023/10/04 07:59:15;;;;;;;;;;;15.20;55.70;;;;;;5041144;27;92508;-48
2023/10/04 08:01:40;;;;;;;;;;;15.30;55.80;;;;;;5036075;27;93448;-52
2023/10/04 08:04:11;;;;;;;;;;;15.20;55.70;;;;;;5042004;28;92125;-52
2023/10/04 08:06:39;;;;;;;;;;;15.30;55.90;;;;;;5043612;27;93035;-52
2023/10/04 08:09:05;;;;;;;;;;;15.30;55.90;;;;;;5037205;27;93181;-49
2023/10/04 08:11:33;;;;;;;;;;;15.20;56.00;;;;;;5036762;27;93644;-52
2023/10/04 08:13:59;;;;;;;;;;;15.20;56.00;;;;;;5041057;27;92580;-50
2023/10/04 08:16:27;;;;;;;;;;;15.20;56.00;;;;;;5040044;27;93532;-49
2023/10/04 08:18:55;;;;;;;;;;;15.20;56.10;;;;;;5042189;27;92358;-48
2023/10/04 08:21:22;;;;;;;;;;;15.20;56.00;;;;;;5038963;27;92711;-52
2023/10/04 08:23:49;;;;;;;;;;;15.20;56.10;;;;;;5042108;28;91537;-51
2023/10/04 08:26:15;;;;;;;;;;;15.20;56.20;;;;;;5040491;27;93154;-55
2023/10/04 08:28:42;;;;;;;;;;;15.20;56.30;;;;;;5038084;27;93093;-51
2023/10/04 08:31:13;;;;;;;;;;;15.20;56.30;;;;;;5035042;28;93240;-50
2023/10/04 08:33:39;;;;;;;;;;;15.20;56.30;;;;;;5037697;28;94945;-49
2023/10/04 08:36:10;;;;;;;;;;;15.20;56.30;;;;;;5039278;27;93176;-52
2023/10/04 08:38:38;;;;;;;;;;;15.20;56.40;;;;;;5039367;27;93185;-53
2023/10/04 08:41:04;;;;;;;;;;;15.20;56.40;;;;;;5040349;28;92715;-51
2023/10/04 08:43:31;;;;;;;;;;;15.20;56.50;;;;;;5043446;28;93648;-50
2023/10/04 08:45:56;;;;;;;;;;;15.20;56.40;;;;;;5038813;27;92592;-47
2023/10/04 08:48:25;;;;;;;;;;;15.20;56.40;;;;;;5038817;27;92458;-50
2023/10/04 08:51:07;;;;;;;;;;;15.20;56.40;;;;;;5038590;28;92068;-49
2023/10/04 08:53:35;;;;;;;;;;;15.20;56.50;;;;;;5037572;28;93097;-50
2023/10/04 08:56:05;;;;;;;;;;;15.30;56.60;;;;;;5037876;27;93488;-51
2023/10/04 08:58:31;;;;;;;;;;;15.30;56.50;;;;;;5038570;27;92185;-51
2023/10/04 09:00:56;;;;;;;;;;;15.30;56.50;;;;;;5041103;28;92649;-52
2023/10/04 09:03:22;;;;;;;;;;;15.30;56.60;;;;;;5042706;27;92485;-49
2023/10/04 09:05:50;;;;;;;;;;;15.20;56.60;;;;;;5038836;27;93803;-50
2023/10/04 09:08:16;;;;;;;;;;;15.30;56.80;;;;;;5036559;27;94545;-52
2023/10/04 09:10:42;;;;;;;;;;;15.30;56.60;;;;;;5039665;27;92119;-49
2023/10/04 09:13:09;;;;;;;;;;;15.30;56.60;;;;;;5040214;27;92466;-49
2023/10/04 09:15:35;;;;;;;;;;;15.30;56.60;;;;;;5036942;27;94412;-47
2023/10/04 09:18:03;;;;;;;;;;;15.30;56.80;;;;;;5038991;27;92283;-49
2023/10/04 09:20:35;;;;;;;;;;;15.30;56.70;;;;;;5040250;28;92982;-51
2023/10/04 09:23:01;;;;;;;;;;;15.30;56.80;;;;;;5038655;27;93265;-50
2023/10/04 09:25:37;;;;;;;;;;;15.30;56.70;;;;;;5040734;27;92201;-49
2023/10/04 09:28:04;;;;;;;;;;;15.30;56.70;;;;;;5035074;27;93421;-51
2023/10/04 09:30:32;;;;;;;;;;;15.40;56.80;;;;;;5040552;27;92233;-53
2023/10/04 09:32:57;;;;;;;;;;;15.40;56.80;;;;;;5038463;27;93981;-53
2023/10/04 09:35:23;;;;;;;;;;;15.40;56.80;;;;;;5037406;27;92970;-48
2023/10/04 09:37:49;;;;;;;;;;;15.40;56.90;;;;;;5040953;28;91434;-52
2023/10/04 09:40:16;;;;;;;;;;;15.40;56.80;;;;;;5036871;28;92192;-53
2023/10/04 09:42:53;;;;;;;;;;;15.40;56.80;;;;;;5042692;27;93542;-50
2023/10/04 09:45:24;;;;;;;;;;;15.40;56.80;;;;;;5033472;27;93148;-49
2023/10/04 09:47:51;;;;;;;;;;;15.40;56.90;;;;;;5039539;28;93525;-50
2023/10/04 09:50:21;;;;;;;;;;;15.40;56.80;;;;;;5039346;27;92458;-52
2023/10/04 09:52:47;;;;;;;;;;;15.40;56.80;;;;;;5038191;27;94555;-52
2023/10/04 09:55:31;;;;;;;;;;;15.40;56.70;;;;;;5036005;27;93540;-50
2023/10/04 09:57:58;;;;;;;;;;;15.50;56.80;;;;;;5037844;28;92037;-52
2023/10/04 10:00:24;;;;;;;;;;;15.50;56.80;;;;;;5038377;27;93286;-52
2023/10/04 10:02:52;;;;;;;;;;;15.50;56.70;;;;;;5040024;27;94213;-49
2023/10/04 10:05:31;;;;;;;;;;;15.50;56.70;;;;;;5038382;27;92233;-51
2023/10/04 10:08:04;;;;;;;;;;;15.50;57.30;;;;;;5039991;27;94341;-51
2023/10/04 10:10:33;;;;;;;;;;;15.50;56.70;;;;;;5038542;27;95761;-52
2023/10/04 10:12:59;;;;;;;;;;;15.60;56.70;;;;;;5038125;27;94444;-53
2023/10/04 10:15:24;;;;;;;;;;;15.60;56.70;;;;;;5038564;28;94110;-51
2023/10/04 10:17:51;;;;;;;;;;;15.60;56.80;;;;;;5039663;27;92060;-49
2023/10/04 10:20:19;;;;;;;;;;;15.60;56.70;;;;;;5036971;27;92687;-49
2023/10/04 10:23:13;;;;;;;;;;;15.60;56.80;;;;;;5037211;27;93201;-50
2023/10/04 10:25:40;;;;;;;;;;;15.60;56.80;;;;;;5035108;28;92220;-53
2023/10/04 10:28:18;;;;;;;;;;;15.60;57.00;;;;;;5038900;27;93944;-50
2023/10/04 10:30:43;;;;;;;;;;;15.70;57.10;;;;;;5037243;27;94005;-51
2023/10/04 10:33:10;;;;;;;;;;;15.70;57.00;;;;;;5039811;28;92190;-52
2023/10/04 10:35:52;;;;;;;;;;;15.70;56.90;;;;;;5038358;27;94134;-51
2023/10/04 10:38:49;;;;;;;;;;;15.70;57.00;;;;;;5037209;27;92940;-52
2023/10/04 10:41:27;;;;;;;;;;;15.70;57.10;;;;;;4988725;28;92345;-50
2023/10/04 10:44:11;;;;;;;;;;;15.80;57.10;;;;;;5038616;28;92458;-48
2023/10/04 10:46:55;;;;;;;;;;;15.80;57.00;;;;;;5035965;27;92745;-50
2023/10/04 10:49:39;;;;;;;;;;;15.80;56.90;;;;;;5036984;27;92334;-52
2023/10/04 10:52:07;;;;;;;;;;;15.80;57.00;;;;;;5030969;28;96223;-51
2023/10/04 10:54:34;;;;;;;;;;;15.80;56.90;;;;;;5038871;27;92839;-52
2023/10/04 10:57:00;;;;;;;;;;;15.80;56.90;;;;;;5042434;27;92703;-53
2023/10/04 10:59:26;;;;;;;;;;;15.90;56.90;;;;;;5036919;27;92999;-52
2023/10/04 11:01:51;;;;;;;;;;;15.90;57.00;;;;;;5038069;28;93042;-53
2023/10/04 11:04:18;;;;;;;;;;;15.90;57.00;;;;;;5037864;27;93702;-50
2023/10/04 11:06:45;;;;;;;;;;;15.90;56.80;;;;;;5036512;27;92249;-50
2023/10/04 11:09:11;;;;;;;;;;;16.00;56.90;;;;;;5036723;27;92523;-50
2023/10/04 11:11:38;;;;;;;;;;;16.00;56.80;;;;;;5038313;27;94589;-52
2023/10/04 11:14:05;;;;;;;;;;;16.00;56.70;;;;;;5037389;27;92577;-52
2023/10/04 11:16:33;;;;;;;;;;;16.00;56.80;;;;;;5037799;27;96016;-54
2023/10/04 11:19:00;;;;;;;;;;;16.00;56.70;;;;;;5032396;28;92945;-51
2023/10/04 11:21:26;;;;;;;;;;;16.00;56.70;;;;;;5039377;27;93189;-53
2023/10/04 11:23:51;;;;;;;;;;;16.10;56.80;;;;;;5040887;27;93320;-53
2023/10/04 11:26:17;;;;;;;;;;;16.10;56.60;;;;;;5036101;27;93578;-50
2023/10/04 11:28:43;;;;;;;;;;;16.10;56.80;;;;;;5035229;27;93674;-54
2023/10/04 11:31:08;;;;;;;;;;;16.10;56.60;;;;;;5037618;27;94498;-50
2023/10/04 11:33:52;;;;;;;;;;;16.10;56.40;;;;;;5039593;27;92260;-50
2023/10/04 11:36:25;;;;;;;;;;;16.20;56.70;;;;;;5042586;27;94363;-51
2023/10/04 11:38:51;;;;;;;;;;;16.20;56.60;;;;;;5044263;28;95238;-51
2023/10/04 11:41:17;;;;;;;;;;;16.20;56.40;;;;;;5044587;27;92578;-52
2023/10/04 11:43:46;;;;;;;;;;;16.20;56.50;;;;;;5045575;27;94499;-53
2023/10/04 11:46:12;;;;;;;;;;;16.20;56.40;;;;;;5041001;27;92132;-52
2023/10/04 11:48:37;;;;;;;;;;;16.30;56.40;;;;;;5045496;27;92517;-52
2023/10/04 11:51:04;;;;;;;;;;;16.30;56.30;;;;;;5045342;27;94612;-49
2023/10/04 11:53:42;;;;;;;;;;;16.30;56.30;;;;;;5041887;27;92368;-52
2023/10/04 11:56:09;;;;;;;;;;;16.30;56.30;;;;;;5043715;28;93063;-49
2023/10/04 11:58:44;;;;;;;;;;;16.30;56.30;;;;;;5044146;28;93489;-52
2023/10/04 12:01:11;;;;;;;;;;;16.40;56.20;;;;;;5045127;27;93402;-50
2023/10/04 12:03:37;;;;;;;;;;;16.40;56.30;;;;;;5042650;27;93151;-51
2023/10/04 12:06:03;;;;;;;;;;;16.40;56.10;;;;;;5045266;28;92132;-49
2023/10/04 12:08:29;;;;;;;;;;;16.50;56.20;;;;;;5044546;28;92374;-48
2023/10/04 12:10:58;;;;;;;;;;;16.50;56.20;;;;;;5042524;27;93774;-48
2023/10/04 12:13:24;;;;;;;;;;;16.50;56.10;;;;;;5046815;27;92032;-52
2023/10/04 12:15:49;;;;;;;;;;;16.50;56.30;;;;;;5043546;28;93741;-54
2023/10/04 12:18:15;;;;;;;;;;;16.50;56.20;;;;;;5043231;27;93345;-50
2023/10/04 12:20:42;;;;;;;;;;;16.60;56.30;;;;;;5042812;27;92167;-52
2023/10/04 12:23:10;;;;;;;;;;;16.60;56.20;;;;;;5043502;27;94220;-48
2023/10/04 12:25:42;;;;;;;;;;;16.60;56.00;;;;;;5040684;28;92294;-49
2023/10/04 12:28:08;;;;;;;;;;;16.60;56.00;;;;;;5042813;27;94073;-51
2023/10/04 12:30:34;;;;;;;;;;;16.70;56.00;;;;;;5040345;27;94251;-53
2023/10/04 12:33:00;;;;;;;;;;;16.70;55.90;;;;;;5043641;28;91491;-51
2023/10/04 12:35:27;;;;;;;;;;;16.70;56.00;;;;;;5044719;27;93305;-49
2023/10/04 12:37:52;;;;;;;;;;;16.70;56.00;;;;;;5042104;27;94032;-52
2023/10/04 12:40:23;;;;;;;;;;;16.80;55.80;;;;;;5041083;27;93806;-51
2023/10/04 12:42:49;;;;;;;;;;;16.80;55.90;;;;;;5044392;27;93619;-53
2023/10/04 12:45:15;;;;;;;;;;;16.80;55.80;;;;;;5043585;27;94570;-51
2023/10/04 12:47:41;;;;;;;;;;;16.80;55.80;;;;;;5039695;27;92861;-53
2023/10/04 12:50:09;;;;;;;;;;;16.90;55.70;;;;;;5036643;27;94667;-51
2023/10/04 12:52:35;;;;;;;;;;;16.90;55.70;;;;;;5040826;27;92412;-51
2023/10/04 12:55:00;;;;;;;;;;;16.90;55.80;;;;;;5039962;27;93813;-50
2023/10/04 12:57:27;;;;;;;;;;;16.90;55.30;;;;;;5039276;27;92158;-51
2023/10/04 12:59:54;;;;;;;;;;;16.90;55.40;;;;;;5039913;27;92827;-50
2023/10/04 13:02:22;;;;;;;;;;;16.90;55.50;;;;;;5040508;27;93678;-49
2023/10/04 13:04:50;;;;;;;;;;;17.00;55.70;;;;;;5038003;27;95002;-49
2023/10/04 13:07:17;;;;;;;;;;;17.00;55.50;;;;;;5043749;27;93051;-50
2023/10/04 13:09:44;;;;;;;;;;;17.00;55.40;;;;;;5040061;28;93664;-52
2023/10/04 13:12:10;;;;;;;;;;;17.10;55.60;;;;;;5040726;27;92321;-50
2023/10/04 13:14:36;;;;;;;;;;;17.10;55.60;;;;;;5039150;27;93133;-51
2023/10/04 13:17:01;;;;;;;;;;;17.10;55.40;;;;;;5035925;27;93753;-51
2023/10/04 13:19:28;;;;;;;;;;;17.10;55.50;;;;;;5040589;28;92343;-52
2023/10/04 13:21:57;;;;;;;;;;;17.10;55.70;;;;;;5040657;27;93978;-50
2023/10/04 13:24:23;;;;;;;;;;;17.10;55.60;;;;;;5040134;27;93696;-52
2023/10/04 13:26:49;;;;;;;;;;;17.10;55.60;;;;;;5039038;27;92289;-52
2023/10/04 13:29:14;;;;;;;;;;;17.20;55.60;;;;;;5039556;28;93673;-51
2023/10/04 13:31:40;;;;;;;;;;;17.20;55.50;;;;;;5039230;28;92331;-52
2023/10/04 13:34:07;;;;;;;;;;;17.20;55.30;;;;;;5038674;27;92135;-51
2023/10/04 13:36:34;;;;;;;;;;;17.20;55.40;;;;;;5041495;27;93147;-52
2023/10/04 13:39:01;;;;;;;;;;;17.30;55.30;;;;;;5040473;28;92160;-53
2023/10/04 13:41:26;;;;;;;;;;;17.30;55.40;;;;;;5040653;27;92604;-52
2023/10/04 13:43:52;;;;;;;;;;;17.30;55.20;;;;;;5037669;27;93943;-53
2023/10/04 13:46:18;;;;;;;;;;;17.30;55.40;;;;;;5039247;27;92265;-51
2023/10/04 13:48:44;;;;;;;;;;;17.30;55.50;;;;;;5042702;27;93037;-49
2023/10/04 13:51:11;;;;;;;;;;;17.40;55.40;;;;;;5038516;27;92258;-49
2023/10/04 13:53:37;;;;;;;;;;;17.40;55.60;;;;;;5045087;27;94074;-50
2023/10/04 13:56:04;;;;;;;;;;;17.40;55.20;;;;;;5036588;28;93262;-52
2023/10/04 13:58:30;;;;;;;;;;;17.40;55.20;;;;;;5039622;27;92075;-50
2023/10/04 14:01:00;;;;;;;;;;;17.50;55.40;;;;;;5038407;27;94073;-52
2023/10/04 14:03:26;;;;;;;;;;;17.40;55.10;;;;;;5034702;27;93838;-52
2023/10/04 14:05:55;;;;;;;;;;;17.50;55.30;;;;;;5035960;27;92290;-48
2023/10/04 14:08:21;;;;;;;;;;;17.50;55.00;;;;;;5039871;27;93882;-54
2023/10/04 14:10:47;;;;;;;;;;;17.50;55.40;;;;;;5041345;27;92350;-54
2023/10/04 14:13:12;;;;;;;;;;;17.50;55.40;;;;;;5037684;27;92580;-50
2023/10/04 14:15:38;;;;;;;;;;;17.50;55.10;;;;;;5038896;27;93483;-51
2023/10/04 14:18:05;;;;;;;;;;;17.60;55.20;;;;;;5039025;27;93114;-50
2023/10/04 14:20:31;;;;;;;;;;;17.60;55.20;;;;;;5037569;27;93527;-51